Time;durP1;ratioP1;P1;durP2;ratioP2;P2;SDS_P1;SDS_P2;PMS_P1;PMS_P2;Temp;Humidity;BMP_temperature;BMP_pressure;BME280_temperature;BME280_humidity;BME280_pressure;Samples;Min_cycle;Max_cycle;Signal;HPM_P1;HPM_P2
2024/01/26 00:01:51;;;;;;;7.38;2.47;;;12.30;99.90;;;;;;6218776;28;20054;-82
2024/01/26 00:04:53;;;;;;;7.40;2.67;;;12.20;99.90;;;;;;6219877;28;20056;-81
2024/01/26 00:07:55;;;;;;;10.13;2.80;;;12.30;99.90;;;;;;6220022;28;20057;-83
2024/01/26 00:10:57;;;;;;;9.40;2.70;;;12.20;99.90;;;;;;6207666;28;20090;-80
2024/01/26 00:13:58;;;;;;;8.25;2.45;;;12.20;99.90;;;;;;6215386;28;20414;-82
2024/01/26 00:17:00;;;;;;;9.23;2.67;;;12.20;99.90;;;;;;6217372;28;20445;-82
2024/01/26 00:20:02;;;;;;;11.05;3.22;;;12.20;99.90;;;;;;6199092;28;20514;-83
2024/01/26 00:23:03;;;;;;;9.18;2.67;;;12.20;99.90;;;;;;6198018;28;20089;-81
2024/01/26 00:26:05;;;;;;;10.25;3.10;;;12.20;99.90;;;;;;6218854;28;20596;-81
2024/01/26 00:29:06;;;;;;;10.13;2.70;;;12.20;99.90;;;;;;6217053;28;20050;-82
2024/01/26 00:32:09;;;;;;;8.80;2.30;;;12.20;99.90;;;;;;6189762;28;20065;-82
2024/01/26 00:35:10;;;;;;;9.98;2.60;;;12.20;99.90;;;;;;6218421;28;20065;-82
2024/01/26 00:38:14;;;;;;;7.88;2.30;;;12.20;99.90;;;;;;6219410;28;20050;-83
2024/01/26 00:41:16;;;;;;;6.93;2.15;;;12.20;99.90;;;;;;6219258;28;20057;-83
2024/01/26 00:44:17;;;;;;;5.93;1.90;;;12.20;99.90;;;;;;6215971;28;20057;-82
2024/01/26 00:47:19;;;;;;;6.38;1.98;;;12.30;99.90;;;;;;6219262;28;20068;-83
2024/01/26 00:50:21;;;;;;;5.82;1.50;;;12.20;99.90;;;;;;6219058;28;20050;-81
2024/01/26 00:53:22;;;;;;;6.70;1.75;;;12.20;99.90;;;;;;6218832;28;20486;-81
2024/01/26 00:56:24;;;;;;;5.50;1.63;;;12.30;99.90;;;;;;6218967;28;20398;-81
2024/01/26 00:59:26;;;;;;;5.63;1.55;;;12.30;99.90;;;;;;6216687;28;20053;-82
2024/01/26 01:02:28;;;;;;;4.25;1.50;;;12.30;99.90;;;;;;6191497;28;20147;-82
2024/01/26 01:05:29;;;;;;;4.45;1.30;;;12.30;99.90;;;;;;6218203;28;20054;-82
2024/01/26 01:08:31;;;;;;;4.05;1.40;;;12.30;99.90;;;;;;6219372;28;20065;-81
2024/01/26 01:11:33;;;;;;;5.72;1.65;;;12.30;99.90;;;;;;6222144;28;20062;-82
2024/01/26 01:14:36;;;;;;;3.47;0.95;;;12.30;99.90;;;;;;6220381;28;20084;-81
2024/01/26 01:17:39;;;;;;;4.38;1.20;;;12.20;99.90;;;;;;6222220;28;20497;-81
2024/01/26 01:20:40;;;;;;;3.67;1.10;;;12.20;99.90;;;;;;6223909;28;20064;-81
2024/01/26 01:23:42;;;;;;;3.20;1.10;;;12.20;99.90;;;;;;6220523;28;20050;-83
2024/01/26 01:26:44;;;;;;;4.50;1.25;;;12.20;99.90;;;;;;6199045;28;20137;-83
2024/01/26 01:29:45;;;;;;;5.05;1.27;;;12.30;99.90;;;;;;6220199;28;20061;-83
2024/01/26 01:32:47;;;;;;;4.38;1.42;;;12.10;99.90;;;;;;6223300;28;20049;-85
2024/01/26 01:35:49;;;;;;;4.28;1.45;;;12.10;99.90;;;;;;6210671;28;20143;-85
2024/01/26 01:38:51;;;;;;;6.68;1.63;;;12.00;99.90;;;;;;6222701;28;20970;-88
2024/01/26 01:41:53;;;;;;;5.28;1.50;;;12.00;99.90;;;;;;6222264;28;20058;-85
2024/01/26 01:44:54;;;;;;;6.38;1.50;;;12.00;99.90;;;;;;6221987;28;20157;-88
2024/01/26 01:47:56;;;;;;;5.03;1.20;;;12.00;99.90;;;;;;6228242;28;20058;-89
2024/01/26 01:50:58;;;;;;;4.28;1.50;;;12.00;99.90;;;;;;6191472;28;20523;-90
2024/01/26 01:54:00;;;;;;;4.85;1.20;;;12.10;99.90;;;;;;6227582;28;20133;-89
2024/01/26 01:57:02;;;;;;;4.53;1.17;;;12.00;99.90;;;;;;6206952;28;20131;-87
2024/01/26 02:00:04;;;;;;;4.10;1.00;;;12.00;99.90;;;;;;6224023;28;20050;-85
2024/01/26 02:03:06;;;;;;;3.13;1.02;;;12.00;99.90;;;;;;6225605;28;20422;-87
2024/01/26 02:06:08;;;;;;;3.03;0.90;;;12.10;99.90;;;;;;6206108;28;20055;-88
2024/01/26 02:09:10;;;;;;;4.00;1.00;;;12.00;99.90;;;;;;6222724;28;20054;-88
2024/01/26 02:12:12;;;;;;;2.55;0.93;;;12.10;99.90;;;;;;6224591;28;20078;-87
2024/01/26 02:15:13;;;;;;;2.28;0.80;;;12.10;99.90;;;;;;6217410;28;20084;-85
2024/01/26 02:18:15;;;;;;;4.07;1.10;;;12.00;99.90;;;;;;6222321;28;20108;-85
2024/01/26 02:21:17;;;;;;;2.78;0.90;;;12.00;99.90;;;;;;6178474;28;20051;-85
2024/01/26 02:24:19;;;;;;;1.50;0.75;;;12.10;99.90;;;;;;6219168;28;20077;-86
2024/01/26 02:27:21;;;;;;;2.33;0.60;;;12.10;99.90;;;;;;6225182;28;20441;-86
2024/01/26 02:30:23;;;;;;;2.17;0.80;;;12.10;99.90;;;;;;6199951;28;20047;-88
2024/01/26 02:33:24;;;;;;;3.03;0.90;;;12.00;99.90;;;;;;6240036;28;20133;-86
2024/01/26 02:36:26;;;;;;;1.90;0.60;;;12.10;99.90;;;;;;6224997;28;20049;-88
2024/01/26 02:39:28;;;;;;;1.30;0.52;;;12.10;99.90;;;;;;6225349;28;20489;-88
2024/01/26 02:42:30;;;;;;;1.75;0.60;;;12.10;99.90;;;;;;6224484;28;20046;-90
2024/01/26 02:45:32;;;;;;;1.70;0.60;;;12.10;99.90;;;;;;6221866;28;20370;-87
2024/01/26 02:48:33;;;;;;;2.42;0.70;;;12.10;99.90;;;;;;6177197;28;20407;-88
2024/01/26 02:51:35;;;;;;;1.50;0.50;;;12.10;99.90;;;;;;6222780;28;20049;-86
2024/01/26 02:54:37;;;;;;;2.13;0.70;;;12.10;99.90;;;;;;6224049;28;20412;-86
2024/01/26 02:57:39;;;;;;;1.52;0.70;;;12.10;99.90;;;;;;6221732;28;20449;-89
2024/01/26 03:00:41;;;;;;;1.17;0.50;;;12.10;99.90;;;;;;6208444;28;20499;-90
2024/01/26 03:03:42;;;;;;;2.65;0.80;;;12.10;99.90;;;;;;6224999;28;20497;-89
2024/01/26 03:06:44;;;;;;;1.63;0.70;;;12.10;99.90;;;;;;6222430;28;20436;-91
2024/01/26 03:09:46;;;;;;;2.00;0.73;;;12.10;99.90;;;;;;6206316;28;20498;-89
2024/01/26 03:12:48;;;;;;;2.25;0.75;;;12.20;99.90;;;;;;6240374;28;20062;-91
2024/01/26 03:15:51;;;;;;;2.83;0.80;;;12.10;99.90;;;;;;6221975;28;20120;-91
2024/01/26 03:18:53;;;;;;;2.75;0.93;;;12.10;99.90;;;;;;6178213;28;20050;-88
2024/01/26 03:21:55;;;;;;;2.35;0.93;;;12.20;99.90;;;;;;6225448;28;20525;-90
2024/01/26 03:24:57;;;;;;;1.80;0.80;;;12.20;99.90;;;;;;6224886;28;20058;-90
2024/01/26 03:27:59;;;;;;;3.38;0.90;;;12.20;99.90;;;;;;6224917;28;20060;-91
2024/01/26 03:31:01;;;;;;;2.83;0.95;;;12.20;99.90;;;;;;6174152;28;20055;-86
2024/01/26 03:34:03;;;;;;;3.00;1.00;;;12.30;99.90;;;;;;6198412;28;20180;-90
2024/01/26 03:37:05;;;;;;;4.75;1.27;;;12.30;99.90;;;;;;6222720;28;20050;-86
2024/01/26 03:40:06;;;;;;;3.65;1.27;;;12.30;99.90;;;;;;6190448;28;20083;-88
2024/01/26 03:43:08;;;;;;;3.88;1.20;;;12.30;99.90;;;;;;6192201;28;20057;-90
2024/01/26 03:46:11;;;;;;;3.38;1.20;;;12.30;99.90;;;;;;6223041;28;20064;-86
2024/01/26 03:49:12;;;;;;;3.75;1.30;;;12.40;99.90;;;;;;6210933;28;20062;-88
2024/01/26 03:52:14;;;;;;;3.78;1.15;;;12.30;99.90;;;;;;6222588;28;20054;-87
2024/01/26 03:55:16;;;;;;;4.45;1.70;;;12.20;99.90;;;;;;6221570;28;20098;-87
2024/01/26 03:58:18;;;;;;;5.10;1.67;;;12.20;99.90;;;;;;6215026;28;20050;-88
2024/01/26 04:01:20;;;;;;;4.28;1.30;;;12.20;99.90;;;;;;6199292;28;20096;-89
2024/01/26 04:04:22;;;;;;;5.25;1.50;;;12.10;99.90;;;;;;6237092;28;20148;-88
2024/01/26 04:07:24;;;;;;;6.88;1.70;;;12.10;99.90;;;;;;6222246;28;20064;-88
2024/01/26 04:10:25;;;;;;;6.35;1.58;;;12.10;99.90;;;;;;6184488;28;20510;-90
2024/01/26 04:13:27;;;;;;;5.43;1.70;;;12.20;99.90;;;;;;6219079;28;20049;-88
2024/01/26 04:16:29;;;;;;;5.80;1.70;;;12.20;99.90;;;;;;6221712;28;20052;-87
2024/01/26 04:19:30;;;;;;;6.20;1.50;;;12.30;99.90;;;;;;6202873;28;20053;-86
2024/01/26 04:22:32;;;;;;;4.30;1.15;;;12.30;99.90;;;;;;6178786;28;20073;-87
2024/01/26 04:25:34;;;;;;;5.75;1.42;;;12.30;99.90;;;;;;6220378;28;20050;-86
2024/01/26 04:28:35;;;;;;;4.90;1.75;;;12.30;99.90;;;;;;6218870;28;20415;-87
2024/01/26 04:31:37;;;;;;;4.93;1.50;;;12.40;99.90;;;;;;6219612;28;20054;-86
2024/01/26 04:34:40;;;;;;;5.82;1.40;;;12.30;99.90;;;;;;6218181;28;20501;-84
2024/01/26 04:37:42;;;;;;;5.65;1.63;;;12.40;99.90;;;;;;6219572;28;20692;-88
2024/01/26 04:40:44;;;;;;;7.68;1.40;;;12.30;99.90;;;;;;6219217;28;20418;-86
2024/01/26 04:43:45;;;;;;;6.25;1.80;;;12.40;99.90;;;;;;6217215;28;20046;-85
2024/01/26 04:46:47;;;;;;;15.35;1.92;;;12.30;99.90;;;;;;6217741;28;20050;-84
2024/01/26 04:49:49;;;;;;;7.95;1.75;;;12.30;99.90;;;;;;6219487;28;20450;-84
2024/01/26 04:52:52;;;;;;;7.57;1.67;;;12.40;99.90;;;;;;6219312;28;20054;-83
2024/01/26 04:55:54;;;;;;;9.18;1.65;;;12.40;99.90;;;;;;6219134;28;20061;-83
2024/01/26 04:58:56;;;;;;;9.85;1.70;;;12.50;99.90;;;;;;6216267;28;20497;-84
2024/01/26 05:01:57;;;;;;;6.63;1.80;;;12.40;99.90;;;;;;6219532;28;20057;-84
2024/01/26 05:04:59;;;;;;;6.72;1.50;;;12.40;99.90;;;;;;6218945;28;20046;-84
2024/01/26 05:08:00;;;;;;;7.78;1.58;;;12.50;99.90;;;;;;6214423;28;20189;-85
2024/01/26 05:11:02;;;;;;;16.88;2.03;;;12.50;99.90;;;;;;6196111;28;20054;-84
2024/01/26 05:14:04;;;;;;;8.57;1.92;;;12.50;99.90;;;;;;6215665;28;20050;-85
2024/01/26 05:17:06;;;;;;;10.75;2.33;;;12.40;99.90;;;;;;6219461;28;20054;-87
2024/01/26 05:20:08;;;;;;;9.20;1.80;;;12.20;99.90;;;;;;6219457;28;20054;-84
2024/01/26 05:23:10;;;;;;;6.82;1.42;;;12.00;99.90;;;;;;6219224;28;20386;-83
2024/01/26 05:26:12;;;;;;;4.78;1.05;;;11.60;99.90;;;;;;6218410;28;20073;-84
2024/01/26 05:29:16;;;;;;;8.23;1.00;;;11.20;99.90;;;;;;6215398;28;20058;-85
2024/01/26 05:32:19;;;;;;;3.72;0.95;;;11.00;99.90;;;;;;6218087;28;20058;-82
2024/01/26 05:35:21;;;;;;;3.58;0.90;;;10.90;99.90;;;;;;6207181;28;20418;-84
2024/01/26 05:38:23;;;;;;;4.32;0.90;;;10.80;99.90;;;;;;6216702;28;20402;-85
2024/01/26 05:41:24;;;;;;;4.20;0.82;;;10.70;99.90;;;;;;6219032;28;20137;-84
2024/01/26 05:44:26;;;;;;;6.50;0.80;;;10.70;99.90;;;;;;6216844;28;20054;-84
2024/01/26 05:47:27;;;;;;;6.10;1.05;;;10.60;99.90;;;;;;6218162;28;20104;-85
2024/01/26 05:50:29;;;;;;;5.32;1.00;;;10.50;99.90;;;;;;6211240;28;20042;-84
2024/01/26 05:53:31;;;;;;;7.13;1.40;;;10.40;99.90;;;;;;6192610;28;20062;-83
2024/01/26 05:56:33;;;;;;;4.25;1.00;;;10.30;99.90;;;;;;6206870;28;20533;-82
2024/01/26 05:59:37;;;;;;;4.85;1.15;;;10.30;99.90;;;;;;6217828;28;20410;-82
2024/01/26 06:02:39;;;;;;;8.35;1.35;;;10.40;99.90;;;;;;6222826;28;20061;-84
2024/01/26 06:05:40;;;;;;;9.20;1.58;;;10.30;99.90;;;;;;6219254;28;20077;-82
2024/01/26 06:08:42;;;;;;;6.80;1.45;;;10.30;99.90;;;;;;6218867;28;20057;-83
2024/01/26 06:11:46;;;;;;;6.85;1.40;;;10.30;99.90;;;;;;6221762;28;20069;-82
2024/01/26 06:14:47;;;;;;;7.55;1.40;;;10.30;99.90;;;;;;6209786;28;20050;-83
2024/01/26 06:17:49;;;;;;;9.68;1.55;;;10.20;99.90;;;;;;6194865;28;20519;-83
2024/01/26 06:20:51;;;;;;;11.75;1.77;;;10.20;99.90;;;;;;6186454;28;20522;-83
2024/01/26 06:23:53;;;;;;;11.90;2.10;;;10.20;99.90;;;;;;6192129;28;20054;-83
2024/01/26 06:26:55;;;;;;;9.75;2.03;;;10.20;99.90;;;;;;6215093;28;20132;-84
2024/01/26 06:29:56;;;;;;;10.32;1.70;;;10.20;99.90;;;;;;6214072;28;20603;-83
2024/01/26 06:32:58;;;;;;;13.43;2.22;;;10.20;99.90;;;;;;6188786;28;20565;-87
2024/01/26 06:36:00;;;;;;;14.70;2.33;;;10.20;99.90;;;;;;6198175;28;20078;-84
2024/01/26 06:39:02;;;;;;;10.82;1.85;;;10.30;99.90;;;;;;6200237;28;20057;-85
2024/01/26 06:42:06;;;;;;;10.30;2.00;;;10.20;99.90;;;;;;6220181;28;20054;-85
2024/01/26 06:45:08;;;;;;;9.50;2.30;;;10.10;99.90;;;;;;6218815;28;20133;-84
2024/01/26 06:48:10;;;;;;;12.50;1.98;;;10.00;99.90;;;;;;6220190;28;20516;-85
2024/01/26 06:51:11;;;;;;;8.30;1.85;;;9.90;99.90;;;;;;6221893;28;20054;-85
2024/01/26 06:54:13;;;;;;;12.43;2.10;;;9.80;99.90;;;;;;6220083;28;20062;-86
2024/01/26 06:57:15;;;;;;;12.85;1.63;;;9.70;99.90;;;;;;6222775;28;20061;-85
2024/01/26 07:00:17;;;;;;;6.07;1.30;;;9.70;99.40;;;;;;6217646;28;20053;-84
2024/01/26 07:03:19;;;;;;;7.80;1.30;;;9.70;93.40;;;;;;6219727;28;20053;-83
2024/01/26 07:06:21;;;;;;;4.80;1.10;;;9.60;82.80;;;;;;6221237;28;20049;-84
2024/01/26 07:09:23;;;;;;;6.88;1.00;;;9.50;87.60;;;;;;6220584;28;20149;-83
2024/01/26 07:12:25;;;;;;;5.82;1.00;;;9.40;54.90;;;;;;6220671;28;20049;-84
2024/01/26 07:15:27;;;;;;;6.38;0.93;;;9.30;63.30;;;;;;6216891;28;20053;-83
2024/01/26 07:18:28;;;;;;;7.28;0.98;;;9.10;29.90;;;;;;6173006;28;20051;-83
2024/01/26 07:21:31;;;;;;;6.30;1.00;;;9.00;7.10;;;;;;6220086;28;20049;-83
2024/01/26 07:24:33;;;;;;;6.78;0.73;;;8.80;1.00;;;;;;6221529;28;20065;-84
2024/01/26 07:27:34;;;;;;;4.43;0.60;;;8.60;6.80;;;;;;6220407;28;20065;-82
2024/01/26 07:30:36;;;;;;;3.65;0.63;;;8.50;7.20;;;;;;6219036;28;20409;-84
2024/01/26 07:33:37;;;;;;;4.03;0.90;;;8.40;16.00;;;;;;6171834;28;20077;-83
2024/01/26 07:36:39;;;;;;;6.88;0.90;;;8.40;8.30;;;;;;6234515;28;20572;-83
2024/01/26 07:39:41;;;;;;;6.28;1.02;;;8.60;12.40;;;;;;6221031;28;20457;-83
2024/01/26 07:42:43;;;;;;;4.95;0.95;;;8.30;6.60;;;;;;6219615;28;20147;-82
2024/01/26 07:45:44;;;;;;;5.72;0.90;;;8.20;3.00;;;;;;6215020;28;20054;-85
2024/01/26 07:48:46;;;;;;;8.02;1.17;;;8.20;10.30;;;;;;6220325;28;20058;-86
2024/01/26 07:51:48;;;;;;;7.55;1.25;;;8.10;3.70;;;;;;6221600;28;20054;-83
2024/01/26 07:54:52;;;;;;;8.30;1.17;;;8.00;9.70;;;;;;6221434;28;20053;-83
2024/01/26 07:57:54;;;;;;;6.80;1.13;;;8.50;11.10;;;;;;6219991;28;20215;-83
2024/01/26 08:00:56;;;;;;;9.73;1.20;;;7.90;16.30;;;;;;6220000;28;20061;-85
2024/01/26 08:03:58;;;;;;;6.80;1.20;;;9.00;12.80;;;;;;6222409;28;20076;-84
2024/01/26 08:07:00;;;;;;;8.40;1.30;;;7.80;21.80;;;;;;6221306;28;20060;-84
2024/01/26 08:10:02;;;;;;;6.40;1.13;;;7.70;13.50;;;;;;6220395;28;20135;-84
2024/01/26 08:13:03;;;;;;;7.07;1.20;;;7.70;28.20;;;;;;6218313;28;20141;-83
2024/01/26 08:16:05;;;;;;;7.78;1.27;;;7.60;25.30;;;;;;6218854;28;20066;-82
2024/01/26 08:19:08;;;;;;;7.05;1.25;;;7.70;17.00;;;;;;6220394;28;20050;-83
2024/01/26 08:22:10;;;;;;;4.63;1.05;;;7.70;23.40;;;;;;6220423;28;20053;-83
2024/01/26 08:25:12;;;;;;;4.95;0.80;;;7.70;27.70;;;;;;6221083;28;20050;-82
2024/01/26 08:28:15;;;;;;;5.38;1.02;;;;;;;;;;6218939;28;20050;-83
2024/01/26 08:31:17;;;;;;;7.47;1.50;;;7.60;24.50;;;;;;6218504;28;20064;-83
2024/01/26 08:34:19;;;;;;;4.80;1.08;;;7.70;25.50;;;;;;6220518;28;20456;-82
2024/01/26 08:37:21;;;;;;;6.65;1.30;;;7.70;20.00;;;;;;6220962;28;20424;-83
2024/01/26 08:40:22;;;;;;;5.30;1.20;;;7.60;35.10;;;;;;6221941;28;20053;-83
2024/01/26 08:43:24;;;;;;;11.27;1.40;;;7.60;37.20;;;;;;6218115;28;20064;-82
2024/01/26 08:46:26;;;;;;;10.23;1.35;;;7.60;49.40;;;;;;6231528;28;20046;-92
2024/01/26 08:49:28;;;;;;;4.95;1.30;;;7.60;42.80;;;;;;6233378;28;20060;-89
2024/01/26 08:52:29;;;;;;;10.65;1.25;;;8.30;37.40;;;;;;6236412;28;20044;-91
2024/01/26 08:55:31;;;;;;;13.55;1.95;;;7.50;35.30;;;;;;6222020;28;20165;-81
2024/01/26 08:58:33;;;;;;;9.63;1.25;;;7.60;26.50;;;;;;6219069;28;20049;-82
2024/01/26 09:01:35;;;;;;;10.77;1.48;;;7.60;28.60;;;;;;6194920;28;20058;-82
2024/01/26 09:04:37;;;;;;;9.55;1.80;;;7.60;33.20;;;;;;6219495;28;20367;-81
2024/01/26 09:07:38;;;;;;;11.00;1.20;;;7.60;31.00;;;;;;6219367;28;20049;-82
2024/01/26 09:10:40;;;;;;;6.70;1.20;;;7.60;13.70;;;;;;6218926;28;20049;-83
2024/01/26 09:13:41;;;;;;;10.02;1.70;;;7.60;17.30;;;;;;6220842;28;20144;-84
2024/01/26 09:16:43;;;;;;;14.60;2.03;;;7.70;13.30;;;;;;6224296;28;20058;-81
2024/01/26 09:19:45;;;;;;;8.10;1.40;;;7.70;18.30;;;;;;6220597;28;20149;-81
2024/01/26 09:22:47;;;;;;;7.38;1.50;;;7.80;7.40;;;;;;6220177;28;20058;-81
2024/01/26 09:25:49;;;;;;;6.10;1.10;;;7.70;21.20;;;;;;6220649;28;20058;-83
2024/01/26 09:28:50;;;;;;;7.80;1.55;;;7.70;9.80;;;;;;6219964;28;20061;-83
2024/01/26 09:31:54;;;;;;;4.95;1.30;;;7.70;13.40;;;;;;6228430;28;20050;-82
2024/01/26 09:34:56;;;;;;;9.27;1.50;;;8.30;14.50;;;;;;6249794;28;20053;-91
2024/01/26 09:37:58;;;;;;;5.45;1.10;;;8.80;14.80;;;;;;6243073;28;20501;-83
2024/01/26 09:40:59;;;;;;;6.90;1.10;;;9.50;1.00;;;;;;6229192;28;20057;-83
2024/01/26 09:44:01;;;;;;;6.05;1.40;;;10.00;1.00;;;;;;6224126;28;20327;-83
2024/01/26 09:47:05;;;;;;;5.75;1.17;;;10.50;1.00;;;;;;6223051;28;20137;-83
2024/01/26 09:50:06;;;;;;;5.43;1.00;;;11.00;1.00;;;;;;6224944;28;20053;-83
2024/01/26 09:53:08;;;;;;;7.03;1.42;;;11.00;1.00;;;;;;6228327;28;20057;-82
2024/01/26 09:56:10;;;;;;;4.80;0.90;;;11.50;1.00;;;;;;6229339;28;20053;-81
2024/01/26 09:59:12;;;;;;;6.53;0.98;;;11.60;1.00;;;;;;6227029;28;20057;-82
2024/01/26 10:02:13;;;;;;;4.40;1.27;;;11.70;1.00;;;;;;6222994;28;20062;-81
2024/01/26 10:05:15;;;;;;;8.40;1.23;;;12.10;1.00;;;;;;6226195;28;20433;-83
2024/01/26 10:08:17;;;;;;;7.43;1.15;;;12.20;1.00;;;;;;6226004;28;20421;-82
2024/01/26 10:11:18;;;;;;;9.25;1.40;;;12.40;1.00;;;;;;6226115;28;20061;-82
2024/01/26 10:14:21;;;;;;;6.88;1.30;;;12.70;1.00;;;;;;6228995;28;20054;-84
2024/01/26 10:17:22;;;;;;;6.03;1.02;;;12.70;1.00;;;;;;6230793;28;20062;-81
2024/01/26 10:20:24;;;;;;;5.55;1.23;;;13.10;1.00;;;;;;6222743;28;20054;-81
2024/01/26 10:23:26;;;;;;;6.50;1.40;;;12.90;1.00;;;;;;6222041;28;20058;-80
2024/01/26 10:26:28;;;;;;;4.90;1.23;;;12.80;1.00;;;;;;6223677;28;20061;-81
2024/01/26 10:29:30;;;;;;;6.85;1.27;;;12.80;1.00;;;;;;6231781;28;20101;-87
2024/01/26 10:32:32;;;;;;;8.90;1.70;;;13.00;1.00;;;;;;6237683;28;20057;-85
2024/01/26 10:35:35;;;;;;;7.22;1.60;;;13.10;1.00;;;;;;6232258;28;20057;-82
2024/01/26 10:38:36;;;;;;;6.28;1.90;;;13.40;1.00;;;;;;6229673;28;20046;-84
2024/01/26 10:41:39;;;;;;;8.30;1.60;;;13.10;1.00;;;;;;6229281;28;20540;-84
2024/01/26 10:44:42;;;;;;;8.32;1.85;;;13.30;1.00;;;;;;6227463;28;20220;-85
2024/01/26 10:47:44;;;;;;;5.28;1.30;;;13.40;1.00;;;;;;6229994;28;20952;-85
2024/01/26 10:50:46;;;;;;;7.65;1.42;;;13.70;1.00;;;;;;6227454;28;20053;-84
2024/01/26 10:53:48;;;;;;;8.20;1.45;;;13.80;1.00;;;;;;6225377;28;20128;-83
2024/01/26 10:56:49;;;;;;;5.60;1.50;;;13.50;1.00;;;;;;6224316;28;20054;-84
2024/01/26 10:59:51;;;;;;;7.00;1.40;;;13.90;1.00;;;;;;6220036;28;20525;-88
2024/01/26 11:02:53;;;;;;;10.02;1.90;;;13.90;1.00;;;;;;6228079;28;20068;-92
2024/01/26 11:05:55;;;;;;;7.93;1.63;;;14.10;1.00;;;;;;6224632;28;20600;-88
2024/01/26 11:08:57;;;;;;;5.72;1.20;;;14.30;1.00;;;;;;6224347;28;20100;-87
2024/01/26 11:12:08;;;;;;;6.13;1.40;;;14.00;1.00;;;;;;6191060;28;20426;-83
2024/01/26 11:15:11;;;;;;;7.00;1.67;;;14.10;1.00;;;;;;6222334;28;20136;-88
2024/01/26 11:18:12;;;;;;;6.88;1.45;;;14.10;1.00;;;;;;6225578;28;20425;-83
2024/01/26 11:21:14;;;;;;;10.27;1.65;;;14.30;1.00;;;;;;6219668;28;20434;-85
2024/01/26 11:24:17;;;;;;;9.00;1.50;;;14.40;1.00;;;;;;6222315;28;20452;-90
2024/01/26 11:27:19;;;;;;;11.32;2.20;;;14.30;1.00;;;;;;6223871;28;20053;-81
2024/01/26 11:30:20;;;;;;;8.05;1.15;;;14.50;1.00;;;;;;6171033;28;20791;-83
2024/01/26 11:33:22;;;;;;;6.50;1.60;;;14.90;1.00;;;;;;6173319;28;20106;-82
2024/01/26 11:36:24;;;;;;;9.07;1.98;;;14.80;1.00;;;;;;6220065;28;20437;-90
2024/01/26 11:39:26;;;;;;;6.20;1.40;;;14.60;1.00;;;;;;6222885;28;20089;-89
2024/01/26 11:42:28;;;;;;;9.93;1.58;;;14.80;1.00;;;;;;6219264;28;20061;-84
2024/01/26 11:45:29;;;;;;;8.07;1.20;;;14.50;1.00;;;;;;6217461;28;20054;-81
2024/01/26 11:48:31;;;;;;;6.93;1.42;;;14.70;1.00;;;;;;6171944;28;20046;-82
2024/01/26 11:51:33;;;;;;;6.22;1.45;;;14.40;1.00;;;;;;6219309;28;20060;-82
2024/01/26 11:54:34;;;;;;;10.98;1.80;;;14.30;1.00;;;;;;6219672;28;20655;-82
2024/01/26 11:57:36;;;;;;;6.03;1.65;;;14.10;1.00;;;;;;6218993;28;20524;-82
2024/01/26 12:00:38;;;;;;;6.78;1.73;;;14.20;1.00;;;;;;6213479;28;20050;-81
2024/01/26 12:03:41;;;;;;;7.20;1.40;;;14.40;1.00;;;;;;6217784;28;20050;-82
2024/01/26 12:06:43;;;;;;;9.27;1.77;;;14.30;1.00;;;;;;6219591;28;20058;-81
2024/01/26 12:09:47;;;;;;;9.23;2.03;;;14.00;1.00;;;;;;6219571;28;20061;-82
2024/01/26 12:12:49;;;;;;;6.50;1.80;;;14.30;1.00;;;;;;6215068;28;20046;-80
2024/01/26 12:15:51;;;;;;;8.50;1.60;;;14.50;1.00;;;;;;6219839;28;20049;-81
2024/01/26 12:18:53;;;;;;;9.85;1.60;;;14.30;1.00;;;;;;6197657;28;20108;-81
2024/01/26 12:21:59;;;;;;;8.65;1.75;;;14.10;1.00;;;;;;6204017;28;20516;-83
2024/01/26 12:25:03;;;;;;;11.68;2.50;;;14.20;1.00;;;;;;6217474;28;20066;-83
2024/01/26 12:28:05;;;;;;;12.65;2.33;;;14.30;1.00;;;;;;6213161;28;20057;-82
2024/01/26 12:31:06;;;;;;;10.52;1.70;;;14.20;1.00;;;;;;6218876;28;20053;-81
2024/01/26 12:34:08;;;;;;;7.55;1.45;;;14.30;1.00;;;;;;6218623;28;20057;-82
2024/01/26 12:37:10;;;;;;;8.55;1.83;;;14.20;1.00;;;;;;6218558;28;20386;-82
2024/01/26 12:40:11;;;;;;;8.40;2.03;;;14.40;1.00;;;;;;6218291;28;20050;-84
2024/01/26 12:43:13;;;;;;;8.77;1.77;;;14.50;1.00;;;;;;6205960;28;20487;-85
2024/01/26 12:46:15;;;;;;;8.35;1.60;;;14.80;1.00;;;;;;6213477;28;20069;-84
2024/01/26 12:49:16;;;;;;;7.03;1.52;;;14.60;1.00;;;;;;6207885;28;20054;-82
2024/01/26 12:52:21;;;;;;;7.35;1.88;;;14.60;1.00;;;;;;6217535;28;20049;-84
2024/01/26 12:55:23;;;;;;;7.70;1.42;;;14.70;1.00;;;;;;6218588;28;20050;-81
2024/01/26 12:58:25;;;;;;;8.63;1.60;;;14.60;1.00;;;;;;6215522;28;20168;-82
2024/01/26 13:01:27;;;;;;;8.48;1.33;;;14.60;1.00;;;;;;6218538;28;20478;-85
2024/01/26 13:04:28;;;;;;;7.38;1.40;;;14.20;1.00;;;;;;6169498;28;20064;-81
2024/01/26 13:07:32;;;;;;;8.85;1.40;;;14.20;1.00;;;;;;6200330;28;20073;-80
2024/01/26 13:10:34;;;;;;;7.18;1.42;;;14.20;1.00;;;;;;6223747;28;20049;-80
2024/01/26 13:13:38;;;;;;;7.13;1.33;;;14.30;1.00;;;;;;6219120;28;20057;-81
2024/01/26 13:16:40;;;;;;;7.05;1.48;;;14.30;1.00;;;;;;6223146;28;20548;-81
2024/01/26 13:19:42;;;;;;;6.13;1.17;;;14.40;1.00;;;;;;6223408;28;20519;-81
2024/01/26 13:22:44;;;;;;;8.43;1.85;;;14.50;1.00;;;;;;6223190;28;20620;-81
2024/01/26 13:25:47;;;;;;;8.02;1.50;;;14.60;1.00;;;;;;6203468;28;20600;-81
2024/01/26 13:28:48;;;;;;;4.30;1.15;;;14.60;1.00;;;;;;6217661;28;20049;-82
2024/01/26 13:31:50;;;;;;;12.07;1.70;;;14.40;1.00;;;;;;6222704;28;20086;-81
2024/01/26 13:34:52;;;;;;;7.18;1.40;;;14.60;1.00;;;;;;6174483;28;20047;-81
2024/01/26 13:37:54;;;;;;;9.20;1.50;;;14.60;1.00;;;;;;6220634;28;20057;-82
2024/01/26 13:40:55;;;;;;;13.27;2.10;;;14.50;1.00;;;;;;6223206;28;20065;-81
2024/01/26 13:43:57;;;;;;;14.25;2.05;;;14.30;1.00;;;;;;6220064;28;20129;-81
2024/01/26 13:46:58;;;;;;;7.53;1.70;;;14.10;1.00;;;;;;6222902;28;20058;-80
2024/01/26 13:50:00;;;;;;;11.38;1.77;;;14.10;1.00;;;;;;6222715;28;20434;-81
2024/01/26 13:53:02;;;;;;;9.65;1.92;;;14.10;1.00;;;;;;6222634;28;20186;-80
2024/01/26 13:56:04;;;;;;;7.47;1.58;;;14.10;1.00;;;;;;6221070;28;20049;-80
2024/01/26 13:59:06;;;;;;;7.95;1.70;;;13.90;1.00;;;;;;6216224;28;20181;-80
2024/01/26 14:02:08;;;;;;;7.32;1.60;;;13.80;1.00;;;;;;6222646;28;20437;-80
2024/01/26 14:05:10;;;;;;;8.80;1.85;;;13.80;1.00;;;;;;6220848;28;20050;-81
2024/01/26 14:08:11;;;;;;;9.25;1.73;;;13.80;1.00;;;;;;6221770;28;20061;-81
2024/01/26 14:11:13;;;;;;;11.05;2.08;;;13.80;1.00;;;;;;6222225;28;20132;-80
2024/01/26 14:14:15;;;;;;;8.13;1.92;;;13.70;1.00;;;;;;6218586;28;20057;-80
2024/01/26 14:17:17;;;;;;;11.93;1.92;;;13.80;1.00;;;;;;6221109;28;20054;-79
2024/01/26 14:20:21;;;;;;;8.05;1.90;;;13.80;1.00;;;;;;6220089;28;20456;-80
2024/01/26 14:23:22;;;;;;;8.93;2.00;;;13.80;1.00;;;;;;6222039;28;20049;-81
2024/01/26 14:26:27;;;;;;;7.53;1.80;;;13.80;1.00;;;;;;6195722;28;20058;-80
2024/01/26 14:29:28;;;;;;;9.52;2.35;;;13.70;1.00;;;;;;6208477;28;20058;-80
2024/01/26 14:32:34;;;;;;;9.25;1.90;;;13.80;1.00;;;;;;6219006;28;20050;-80
2024/01/26 14:35:36;;;;;;;8.60;1.60;;;13.60;1.00;;;;;;6173351;28;20527;-86
2024/01/26 14:38:38;;;;;;;8.65;2.15;;;13.40;1.00;;;;;;6236303;28;20060;-87
2024/01/26 14:41:40;;;;;;;8.60;1.90;;;13.30;1.00;;;;;;6223440;28;20084;-83
2024/01/26 14:44:43;;;;;;;8.20;1.70;;;13.10;1.00;;;;;;6219395;28;20440;-83
2024/01/26 14:47:46;;;;;;;9.27;1.85;;;12.80;1.00;;;;;;6222926;28;20056;-83
2024/01/26 14:50:48;;;;;;;10.07;2.38;;;12.00;1.00;;;;;;6221932;28;20053;-85
2024/01/26 14:53:50;;;;;;;9.20;1.77;;;11.20;1.00;;;;;;6220778;28;20061;-84
2024/01/26 14:56:52;;;;;;;10.02;2.00;;;10.80;1.00;;;;;;6220586;28;20100;-80
2024/01/26 14:59:53;;;;;;;9.02;1.95;;;10.50;1.00;;;;;;6214895;28;20054;-80
2024/01/26 15:02:55;;;;;;;8.43;1.83;;;10.30;1.00;;;;;;6222461;28;20159;-80
2024/01/26 15:05:57;;;;;;;13.93;2.20;;;10.30;1.00;;;;;;6221532;28;20050;-82
2024/01/26 15:08:59;;;;;;;14.73;2.20;;;10.40;1.00;;;;;;6221248;28;20057;-81
2024/01/26 15:12:03;;;;;;;10.95;1.70;;;10.10;1.00;;;;;;6220429;28;20188;-81
2024/01/26 15:15:05;;;;;;;10.32;1.60;;;10.70;1.00;;;;;;6215754;28;20502;-80
2024/01/26 15:18:06;;;;;;;11.43;1.90;;;9.90;1.00;;;;;;6220891;28;20064;-78
2024/01/26 15:21:09;;;;;;;9.57;1.95;;;9.80;1.00;;;;;;6220207;28;20053;-80
2024/01/26 15:24:11;;;;;;;16.23;2.55;;;9.80;1.00;;;;;;6220085;28;20488;-80
2024/01/26 15:27:13;;;;;;;7.25;1.77;;;9.70;1.00;;;;;;6221674;28;20420;-81
2024/01/26 15:30:14;;;;;;;9.90;1.75;;;9.70;1.00;;;;;;6214274;28;20527;-81
2024/01/26 15:33:18;;;;;;;13.82;2.25;;;9.60;1.00;;;;;;6220061;28;20532;-81
2024/01/26 15:36:21;;;;;;;11.82;2.28;;;;;;;;;;6220135;28;20556;-82
2024/01/26 15:39:23;;;;;;;10.45;2.08;;;;;;;;;;6220392;28;20073;-81
2024/01/26 15:42:25;;;;;;;12.65;1.60;;;;;;;;;;6219633;28;20064;-80
2024/01/26 15:45:27;;;;;;;12.52;1.85;;;9.10;1.00;;;;;;6214935;28;20061;-80
2024/01/26 15:48:28;;;;;;;11.98;1.95;;;9.10;1.00;;;;;;6171503;28;20061;-81
2024/01/26 15:51:30;;;;;;;11.00;1.75;;;9.00;1.00;;;;;;6218557;28;20409;-80
2024/01/26 15:54:32;;;;;;;6.57;1.58;;;8.90;1.00;;;;;;6219600;28;20103;-80